createdAt,value
2023-01-23T00:46:28.348Z,96.35
2023-01-23T02:24:21.290Z,109.72
2023-01-23T02:26:58.382Z,101.85
2023-01-23T02:29:46.371Z,98.45
2023-01-23T02:32:16.772Z,97.03
2023-01-23T02:34:48.301Z,91.53
2023-01-23T02:37:19.524Z,93.20
2023-01-23T02:39:59.477Z,90.55
2023-01-23T02:45:21.779Z,81.05
2023-01-23T02:47:53.089Z,76.55
2023-01-23T02:50:31.879Z,71.43
2023-01-23T02:53:01.910Z,73.80
2023-01-23T02:55:44.759Z,76.63
2023-01-23T02:58:31.979Z,70.90
2023-01-23T03:01:05.823Z,76.78
2023-01-23T03:03:44.491Z,70.65
2023-01-23T03:06:14.874Z,66.50
2023-01-23T03:08:54.392Z,60.33
2023-01-23T03:11:30.236Z,54.97
2023-01-23T03:14:05.276Z,54.70
2023-01-23T03:16:35.953Z,49.20
2023-01-23T03:19:11.011Z,46.05
2023-01-23T03:21:41.471Z,48.40
2023-01-23T03:24:14.436Z,46.13
2023-01-23T03:26:47.904Z,41.75
2023-01-23T03:29:57.438Z,41.63
2023-01-23T03:32:50.488Z,39.75
2023-01-23T03:35:20.298Z,40.30
2023-01-23T03:37:49.832Z,44.75
2023-01-23T03:40:41.536Z,37.97
2023-01-23T03:43:12.691Z,36.92
2023-01-23T03:45:45.492Z,34.30
2023-01-23T03:48:12.653Z,36.72
2023-01-23T03:50:41.671Z,37.05
2023-01-23T03:53:11.140Z,33.42
2023-01-23T03:55:38.272Z,34.53
2023-01-23T03:58:05.399Z,35.47
2023-01-23T04:00:34.324Z,35.53
2023-01-23T04:03:05.692Z,32.90
2023-01-23T04:05:32.934Z,32.22
2023-01-23T04:08:01.628Z,32.85
2023-01-23T04:10:28.964Z,31.08
2023-01-23T04:13:03.352Z,20.75
2023-01-23T04:15:33.389Z,21.90
2023-01-23T04:18:02.415Z,18.80
2023-01-23T04:20:30.255Z,21.45
2023-01-23T04:22:58.576Z,19.17
2023-01-23T04:25:28.687Z,17.60
2023-01-23T04:27:55.922Z,14.65
2023-01-23T04:42:56.292Z,12.20
2023-01-23T04:46:18.131Z,13.00
2023-01-23T04:48:59.800Z,11.35
2023-01-23T04:51:28.020Z,9.80
2023-01-23T04:53:56.656Z,12.13
2023-01-23T04:56:27.137Z,10.10
2023-01-23T04:58:55.632Z,9.38
2023-01-23T05:01:24.186Z,9.07
2023-01-23T05:07:13.672Z,7.60
2023-01-23T05:10:02.459Z,6.57
2023-01-23T05:12:33.909Z,8.30
2023-01-23T05:15:08.604Z,6.20
2023-01-23T05:17:38.880Z,7.07
2023-01-23T05:20:07.655Z,9.18
2023-01-23T05:22:37.717Z,4.55
2023-01-23T05:25:05.544Z,5.55
2023-01-23T05:27:33.332Z,5.53
2023-01-23T05:30:01.085Z,4.95
2023-01-23T05:32:34.813Z,5.55
2023-01-23T05:35:12.555Z,5.20
2023-01-23T05:37:43.092Z,6.10
2023-01-23T05:40:13.634Z,5.57
2023-01-23T05:43:08.164Z,3.55
2023-01-23T05:46:01.494Z,9.95
2023-01-23T05:48:40.304Z,5.90
2023-01-23T05:51:24.212Z,3.53
2023-01-23T05:53:54.199Z,4.63
2023-01-23T05:56:22.113Z,5.35
2023-01-23T05:59:08.788Z,5.10
2023-01-23T06:01:54.324Z,4.88
2023-01-23T06:04:42.241Z,4.47
2023-01-23T06:07:24.939Z,4.30
2023-01-23T06:09:57.357Z,4.45
2023-01-23T06:12:29.296Z,4.25
2023-01-23T06:14:57.156Z,4.45
2023-01-23T06:17:25.006Z,5.15
2023-01-23T06:19:55.196Z,6.50
2023-01-23T06:22:24.077Z,4.75
2023-01-23T06:25:01.124Z,5.70
2023-01-23T06:27:30.052Z,4.43
2023-01-23T06:30:02.120Z,4.22
2023-01-23T06:32:31.224Z,4.72
2023-01-23T06:34:58.522Z,5.22
2023-01-23T06:37:36.833Z,5.27
2023-01-23T06:40:07.128Z,6.07
2023-01-23T06:42:38.296Z,6.53
2023-01-23T06:45:12.320Z,7.38
2023-01-23T06:47:39.771Z,5.50
2023-01-23T06:50:07.964Z,3.47
2023-01-23T06:52:46.299Z,4.60
2023-01-23T06:55:14.688Z,5.18
2023-01-23T06:57:47.704Z,4.30
2023-01-23T07:00:20.599Z,5.85
2023-01-23T07:02:49.150Z,5.05
2023-01-23T07:05:21.148Z,5.05
2023-01-23T07:07:49.384Z,4.20
2023-01-23T07:10:18.827Z,3.83
2023-01-23T07:12:51.036Z,5.72
2023-01-23T07:15:19.613Z,4.88
2023-01-23T07:17:51.948Z,6.55
2023-01-23T07:20:22.745Z,4.93
2023-01-23T07:22:58.778Z,7.65
2023-01-23T07:25:27.365Z,6.28
2023-01-23T07:27:54.938Z,5.15
2023-01-23T07:30:23.032Z,6.35
2023-01-23T07:32:50.730Z,4.53
2023-01-23T07:35:19.856Z,5.10
2023-01-23T07:37:48.841Z,6.30
2023-01-23T07:40:19.000Z,4.32
2023-01-23T07:42:48.162Z,5.10
2023-01-23T07:45:23.088Z,4.78
2023-01-23T07:47:50.420Z,4.32
2023-01-23T07:50:18.961Z,5.72
2023-01-23T07:52:48.350Z,3.85
2023-01-23T07:55:17.676Z,3.40
2023-01-23T07:57:45.042Z,4.07
2023-01-23T08:00:14.361Z,5.85
2023-01-23T08:02:43.684Z,7.70
2023-01-23T08:05:11.158Z,8.88
2023-01-23T08:07:42.258Z,10.18
2023-01-23T08:10:10.642Z,10.10
2023-01-23T08:12:37.971Z,6.07
2023-01-23T08:15:05.824Z,5.13
2023-01-23T08:17:36.974Z,5.53
2023-01-23T08:20:05.857Z,4.47
2023-01-23T08:22:35.258Z,6.28
2023-01-23T08:27:45.956Z,8.50
2023-01-23T08:30:14.950Z,4.93
2023-01-23T08:32:42.893Z,3.80
2023-01-23T08:35:12.661Z,3.03
2023-01-23T08:37:43.155Z,8.20
2023-01-23T08:40:13.135Z,5.45
2023-01-23T08:42:42.416Z,6.47
2023-01-23T08:45:10.539Z,7.07
2023-01-23T08:47:38.530Z,7.28
2023-01-23T08:50:17.087Z,5.97
2023-01-23T08:52:44.418Z,4.63
2023-01-23T08:55:15.228Z,4.38
2023-01-23T08:57:45.095Z,5.13
2023-01-23T09:00:13.898Z,6.10
2023-01-23T09:02:44.493Z,5.95
2023-01-23T09:05:12.869Z,9.32
2023-01-23T09:07:41.092Z,5.20
2023-01-23T09:10:09.954Z,5.03
2023-01-23T09:12:41.798Z,4.53
2023-01-23T09:15:13.091Z,7.47
2023-01-23T09:17:41.443Z,8.20
2023-01-23T09:20:09.608Z,4.82
2023-01-23T09:22:37.108Z,5.75
2023-01-23T09:25:04.999Z,8.05
2023-01-23T09:27:32.137Z,7.55
2023-01-23T09:30:02.682Z,5.88
2023-01-23T09:32:35.490Z,8.73
2023-01-23T09:35:02.675Z,12.77
2023-01-23T09:37:58.560Z,9.63
2023-01-23T09:40:34.756Z,5.75
2023-01-23T09:43:26.565Z,5.45
2023-01-23T09:46:27.135Z,4.35
2023-01-23T09:48:59.556Z,5.32
2023-01-23T09:52:15.995Z,8.20
2023-01-23T09:55:10.296Z,4.40
2023-01-23T09:58:01.241Z,6.25
2023-01-23T10:00:33.848Z,6.38
2023-01-23T10:03:03.373Z,6.53
2023-01-23T10:06:16.384Z,5.40
2023-01-23T10:09:22.634Z,8.55
2023-01-23T10:12:02.959Z,5.35
2023-01-23T10:14:50.420Z,5.00
2023-01-23T10:18:01.030Z,9.65
2023-01-23T10:21:07.481Z,5.28
2023-01-23T10:23:57.287Z,7.72
2023-01-23T10:26:35.850Z,3.88
2023-01-23T10:29:15.700Z,6.95
2023-01-23T10:31:53.273Z,11.57
2023-01-23T10:34:37.231Z,11.30
2023-01-23T10:37:37.527Z,8.65
2023-01-23T10:40:16.000Z,9.40
2023-01-23T10:42:43.672Z,8.05
2023-01-23T10:45:19.392Z,22.02
2023-01-23T10:48:06.464Z,11.80
2023-01-23T10:50:39.849Z,8.40
2023-01-23T10:53:23.333Z,7.97
2023-01-23T10:56:01.015Z,4.38
2023-01-23T10:58:40.225Z,6.45
2023-01-23T11:01:27.422Z,4.90
2023-01-23T11:03:54.811Z,10.00
2023-01-23T11:06:26.129Z,8.05
2023-01-23T11:09:00.801Z,5.50
2023-01-23T11:11:33.022Z,10.85
2023-01-23T11:14:19.156Z,3.85
2023-01-23T11:16:58.922Z,4.13
2023-01-23T11:19:26.164Z,7.55
2023-01-23T11:22:01.971Z,5.38
2023-01-23T11:24:40.383Z,17.70
2023-01-23T11:27:20.895Z,5.43
2023-01-23T11:30:08.372Z,9.43
2023-01-23T11:33:08.885Z,8.18
2023-01-23T11:36:07.395Z,7.75
2023-01-23T11:38:52.864Z,13.48
2023-01-23T11:41:27.328Z,43.05
2023-01-23T11:43:56.095Z,9.23
2023-01-23T11:46:45.054Z,7.80
2023-01-23T11:49:33.926Z,7.00
2023-01-23T11:52:30.309Z,3.83
2023-01-23T11:55:38.922Z,4.72
2023-01-23T11:58:42.351Z,9.90
2023-01-23T12:01:34.336Z,11.68
2023-01-23T12:04:33.495Z,7.07
2023-01-23T12:07:14.376Z,17.17
2023-01-23T12:09:59.531Z,7.45
2023-01-23T12:13:18.350Z,5.00
2023-01-23T12:16:27.754Z,7.05
2023-01-23T12:19:25.012Z,5.00
2023-01-23T12:22:35.819Z,4.78
2023-01-23T12:25:23.623Z,6.63
2023-01-23T12:28:06.825Z,7.20
2023-01-23T12:31:09.769Z,7.93
2023-01-23T12:34:13.253Z,5.00
2023-01-23T12:37:22.357Z,4.90
2023-01-23T12:40:10.873Z,9.32
2023-01-23T12:42:52.157Z,3.58
2023-01-23T12:45:28.356Z,5.13
2023-01-23T12:48:02.745Z,4.65
2023-01-23T12:50:52.399Z,8.18
2023-01-23T12:53:26.084Z,4.88
2023-01-23T12:55:53.918Z,4.55
2023-01-23T12:58:27.154Z,7.03
2023-01-23T13:01:40.937Z,4.53
2023-01-23T13:04:27.706Z,8.27
2023-01-23T13:07:14.849Z,8.40
2023-01-23T13:10:07.732Z,6.88
2023-01-23T13:12:37.152Z,4.45
2023-01-23T13:15:39.935Z,7.32
2023-01-23T13:18:27.626Z,5.13
2023-01-23T13:21:18.650Z,7.18
2023-01-23T13:23:49.989Z,7.35
2023-01-23T13:26:23.778Z,10.02
2023-01-23T13:29:04.377Z,10.80
2023-01-23T13:31:47.426Z,5.53
2023-01-23T13:34:22.280Z,6.30
2023-01-23T13:36:53.596Z,5.95
2023-01-23T13:39:25.330Z,8.73
2023-01-23T13:42:15.928Z,5.97
2023-01-23T13:45:37.969Z,10.00
2023-01-23T14:20:24.638Z,7.07
2023-01-23T14:22:58.547Z,5.78
2023-01-23T14:25:27.279Z,7.13
2023-01-23T14:28:07.122Z,8.05
2023-01-23T14:30:39.855Z,13.63
2023-01-23T14:33:17.819Z,6.63
2023-01-23T14:35:45.983Z,10.90
2023-01-23T14:38:39.487Z,6.60
2023-01-23T14:41:07.705Z,6.32
2023-01-23T14:43:41.247Z,6.40
2023-01-23T14:46:17.858Z,5.40
2023-01-23T14:48:54.751Z,4.78
2023-01-23T14:51:26.002Z,6.43
2023-01-23T14:54:10.230Z,7.47
2023-01-23T14:56:40.827Z,5.80
2023-01-23T15:02:36.802Z,6.07
2023-01-23T15:05:13.997Z,4.85
2023-01-23T15:10:24.272Z,5.75
2023-01-23T15:12:53.946Z,5.20
2023-01-23T15:15:26.179Z,7.35
2023-01-23T15:18:00.540Z,6.32
2023-01-23T15:20:41.349Z,12.57
2023-01-23T15:23:19.339Z,9.20
2023-01-23T15:25:57.559Z,7.13
2023-01-23T15:28:39.293Z,8.95
2023-01-23T15:31:27.413Z,8.25
2023-01-23T15:33:59.509Z,8.43
2023-01-23T15:36:31.951Z,8.73
2023-01-23T15:39:05.325Z,12.45
2023-01-23T15:41:44.908Z,10.57
2023-01-23T15:44:19.096Z,8.18
2023-01-23T15:49:25.393Z,10.25
2023-01-23T15:52:32.496Z,6.60
2023-01-23T15:55:24.991Z,9.05
2023-01-23T15:57:54.914Z,8.25
2023-01-23T16:00:31.343Z,7.78
2023-01-23T16:02:59.628Z,9.32
2023-01-23T16:05:30.463Z,7.18
2023-01-23T16:08:03.520Z,9.68
2023-01-23T16:10:36.539Z,7.40
2023-01-23T16:13:07.676Z,8.23
2023-01-23T16:15:35.611Z,8.63
2023-01-23T16:18:07.348Z,10.25
2023-01-23T16:20:39.993Z,7.70
2023-01-23T16:23:16.428Z,7.88
2023-01-23T16:25:46.282Z,9.98
2023-01-23T16:28:22.073Z,7.28
2023-01-23T16:30:51.913Z,9.45
2023-01-23T16:33:21.796Z,8.52
2023-01-23T16:35:56.432Z,13.13
2023-01-23T16:38:29.538Z,14.68
2023-01-23T16:41:01.788Z,7.18
2023-01-23T16:43:31.847Z,7.43
2023-01-23T16:46:00.143Z,10.50
2023-01-23T16:48:29.475Z,10.02
2023-01-23T16:51:03.579Z,13.13
2023-01-23T16:53:37.961Z,13.00
2023-01-23T16:56:06.492Z,19.55
2023-01-23T16:58:42.129Z,7.45
2023-01-23T17:01:22.005Z,12.98
2023-01-23T17:04:03.097Z,11.82
2023-01-23T17:06:31.108Z,14.95
2023-01-23T17:08:58.410Z,14.50
2023-01-23T17:11:41.270Z,11.98
2023-01-23T17:14:15.517Z,11.75
2023-01-23T17:16:44.639Z,9.32
2023-01-23T17:19:40.335Z,10.98
2023-01-23T17:22:17.758Z,8.13
2023-01-23T17:24:45.684Z,13.57
2023-01-23T17:27:12.792Z,10.02
2023-01-23T17:29:40.017Z,9.70
2023-01-23T17:32:07.142Z,12.13
2023-01-23T17:34:49.388Z,11.20
2023-01-23T17:37:21.881Z,12.23
2023-01-23T17:39:49.373Z,9.88
2023-01-23T17:42:17.018Z,8.98
2023-01-23T17:44:44.275Z,9.82
2023-01-23T17:47:12.862Z,9.20
2023-01-23T17:49:41.825Z,16.45
2023-01-23T17:52:15.683Z,8.77
2023-01-23T17:54:42.957Z,8.25
2023-01-23T17:57:11.993Z,8.95
2023-01-23T17:59:40.549Z,11.10
2023-01-23T18:02:28.422Z,8.82
2023-01-23T18:04:56.945Z,9.45
2023-01-23T18:07:27.252Z,10.27
2023-01-23T18:09:56.368Z,11.65
2023-01-23T18:12:46.966Z,14.20
2023-01-23T18:15:35.929Z,9.85
2023-01-23T18:18:03.115Z,9.77
2023-01-23T18:20:33.585Z,25.75
2023-01-23T18:23:01.171Z,12.25
2023-01-23T18:25:28.823Z,10.20
2023-01-23T18:31:16.603Z,8.93
2023-01-23T18:34:14.779Z,14.88
2023-01-23T18:37:03.686Z,9.55
2023-01-23T18:39:44.731Z,15.32
2023-01-23T18:42:40.697Z,9.43
2023-01-23T18:45:20.754Z,12.73
2023-01-23T18:47:55.599Z,12.10
2023-01-23T18:50:25.413Z,11.82
2023-01-23T18:53:17.395Z,10.48
2023-01-23T18:55:57.400Z,13.75
2023-01-23T19:01:54.047Z,9.45
2023-01-23T19:04:40.945Z,11.63
2023-01-23T19:07:18.480Z,13.75
2023-01-23T19:09:47.241Z,10.43
2023-01-23T19:13:01.961Z,10.48
2023-01-23T19:15:35.806Z,10.20
2023-01-23T19:18:48.117Z,13.95
2023-01-23T19:21:25.317Z,18.77
2023-01-23T19:24:03.507Z,11.02
2023-01-23T19:26:35.054Z,11.15
2023-01-23T19:29:19.987Z,10.93
2023-01-23T19:32:03.673Z,11.55
2023-01-23T19:34:36.924Z,8.05
2023-01-23T19:37:06.060Z,12.00
2023-01-23T19:39:34.689Z,14.70
2023-01-23T19:42:03.999Z,17.23
2023-01-23T19:44:33.295Z,12.75
2023-01-23T19:47:01.059Z,14.52
2023-01-23T19:49:29.275Z,12.70
2023-01-23T19:51:58.597Z,12.73
2023-01-23T19:54:26.242Z,12.45
2023-01-23T19:56:53.465Z,14.77
2023-01-23T19:59:21.216Z,10.45
2023-01-23T20:01:52.032Z,10.90
2023-01-23T20:04:22.873Z,8.93
2023-01-23T20:06:56.443Z,10.77
2023-01-23T20:09:25.663Z,12.40
2023-01-23T20:11:57.124Z,11.85
2023-01-23T20:14:25.827Z,9.20
2023-01-23T20:16:53.157Z,9.70
2023-01-23T20:19:20.636Z,9.10
2023-01-23T20:21:48.753Z,9.55
2023-01-23T20:24:17.583Z,11.32
2023-01-23T20:26:47.363Z,11.13
2023-01-23T20:29:14.812Z,8.95
2023-01-23T20:31:42.037Z,10.23
2023-01-23T20:34:10.335Z,9.02
2023-01-23T20:36:38.594Z,6.70
2023-01-23T20:39:06.576Z,7.45
2023-01-23T20:41:37.479Z,8.18
2023-01-23T20:44:07.432Z,6.93
2023-01-23T20:46:38.100Z,11.23
2023-01-23T20:49:05.853Z,12.73
2023-01-23T20:51:33.183Z,7.28
2023-01-23T20:54:01.473Z,6.40
2023-01-23T20:56:28.940Z,6.00
2023-01-23T20:59:15.698Z,8.30
2023-01-23T21:02:13.109Z,7.63
2023-01-23T21:04:41.163Z,6.90
2023-01-23T21:07:09.068Z,6.63
2023-01-23T21:09:39.245Z,7.97
2023-01-23T21:12:07.427Z,7.07
2023-01-23T21:14:36.261Z,6.07
2023-01-23T21:17:07.035Z,9.23
2023-01-23T21:19:36.165Z,8.50
2023-01-23T21:22:06.125Z,7.97
2023-01-23T21:24:36.971Z,7.75
2023-01-23T21:27:05.809Z,7.20
2023-01-23T21:29:34.563Z,6.68
2023-01-23T21:32:02.009Z,13.32
2023-01-23T21:34:30.296Z,8.65
2023-01-23T21:36:58.005Z,10.82
2023-01-23T21:39:26.108Z,5.18
2023-01-23T21:41:58.218Z,7.28
2023-01-23T21:44:28.701Z,8.05
2023-01-23T21:47:01.087Z,7.72
2023-01-23T21:49:29.219Z,6.63
2023-01-23T21:51:58.060Z,7.30
2023-01-23T21:54:29.234Z,6.88
2023-01-23T21:56:57.791Z,14.40
2023-01-23T21:59:27.252Z,8.40
2023-01-23T22:01:55.768Z,8.95
2023-01-23T22:04:23.035Z,4.53
2023-01-23T22:06:55.567Z,6.88
2023-01-23T22:09:25.519Z,7.18
2023-01-23T22:11:55.348Z,12.38
2023-01-23T22:14:23.949Z,12.43
2023-01-23T22:16:52.436Z,8.38
2023-01-23T22:19:24.874Z,6.55
2023-01-23T22:21:54.333Z,6.63
2023-01-23T22:24:24.169Z,4.45
2023-01-23T22:26:53.928Z,5.82
2023-01-23T22:29:22.873Z,6.57
2023-01-23T22:31:52.529Z,5.63
2023-01-23T22:34:21.404Z,5.97
2023-01-23T22:36:49.210Z,8.32
2023-01-23T22:39:20.331Z,6.13
2023-01-23T22:41:50.456Z,6.28
2023-01-23T22:44:21.350Z,4.63
2023-01-23T22:46:56.367Z,5.05
2023-01-23T22:49:32.674Z,5.10
2023-01-23T22:52:06.203Z,6.47
2023-01-23T22:54:46.078Z,4.95
2023-01-23T22:57:13.725Z,8.45
2023-01-23T22:59:41.286Z,6.13
2023-01-23T23:02:09.157Z,3.83
2023-01-23T23:04:37.813Z,11.68
2023-01-23T23:07:08.815Z,6.15
2023-01-23T23:09:36.784Z,9.32
2023-01-23T23:12:08.031Z,6.05
2023-01-23T23:14:39.958Z,3.47
2023-01-23T23:17:07.209Z,8.18
2023-01-23T23:19:34.852Z,5.15
2023-01-23T23:22:02.625Z,3.97
2023-01-23T23:24:32.992Z,5.88
2023-01-23T23:27:02.494Z,4.82
2023-01-23T23:29:31.431Z,4.05
2023-01-23T23:31:59.300Z,4.63
2023-01-23T23:34:27.084Z,4.85
2023-01-23T23:36:56.406Z,4.15
2023-01-23T23:39:24.304Z,5.03
2023-01-23T23:41:51.620Z,7.22
2023-01-23T23:44:21.572Z,4.38
2023-01-23T23:46:48.942Z,5.65
2023-01-23T23:49:17.491Z,3.53
2023-01-23T23:51:44.613Z,4.93
2023-01-23T23:54:14.851Z,4.65
2023-01-23T23:56:43.332Z,3.60
2023-01-23T23:59:16.886Z,4.65
